Strona główna
METAR-TAF:

METAR-TAF

Lotnisko :

Quito, Ekwador

Szerokość geograficzna: 0-06-48S, Długość geograficzna: 78-21-31W, wysokość: 2400 m

Aktualna obserwacja pogody

Raport powstał 52 minut temu, godzina 15:00 UTC
Wiatr 6 kt od północno-północny zachód
Temperatura 20°C
Wilgotność 43%
Ciśnienie 1027 hPa
Widzialność 10 km lub więcej
Mało chmury na wysokości 4000 ft

METAR: SEQM 161500Z 33006KT 9999 FEW040 20/07 Q1027 NOSIG RMK A3034

czas: 10:52 (15:52 UTC)

Prognoza

Raport powstał 6 godziny i 22 minut temu, godzina 09:30 UTC
Prognoza ważna od 16 godzina 12 UTC do 17 godzina 12 UTC
Wiatr 3 kt z kierunków zmiennych
Widzialność 10 km lub więcej
Mało chmury na wysokości 3000 ft
Stopniowe zmiany
od 16 godzina 17 UTC do 16 godzina 19 UTC
Wiatr 10 kt od północ
Stopniowe zmiany
od 16 godzina 22 UTC do 16 godzina 24 UTC
Wiatr 5 kt od północny wschód

TAF: SEQM 160930Z 1612/1712 VRB03KT 9999 FEW030 BECMG 1617/1619 35010KT BECMG 1622/1624 04005KT TX24/1619Z TN10/1711Z

Obserwacja i prognoza pogody dla ponad 4000 lotnisk (raport METAR i TAF).

Dostępne stacje oznaczono żółtymi i czerwonymi punktami na mapie.

Najedź kursorem aby zobaczyć nazwę stacji.

Kliknij aby zobaczyć obserwacje i prognozy pogody.

Aby zmienić mapę: kliknij na zielony przycisk z czarnym krzyżykiem, aby powiększyć; na zielony przycisk z myślnikiem, aby pomniejszyć; na zielone strzałki, aby przejść do map sąsiednich.


METAR-TAF: